M I D A S
Marine Information and Data Acquisition System
Tripno 2071 of the Zeeleeuw from 2011-04-04 06:47:19 to 2011-04-04 15:57:38
Back to CruiseResearch ActivitiesStationsMapUnderway DataData graphs

EquipmentUnitsComment
TimeDGPSUTC
LatitudeDGPSDM.mWGS84
LongitudeDGPSDM.mWGS84
TemperatureSBE03/SBE38deg celciusITS90
ConductivitySBE21S/mITS90
SalinitySBE21 Practical Salinity Units
ChlorophylAChelsea fluorimeterg/lCalibrated in Aceton
Missing or incorrect values are displayed as -999
Sea surface data collected by the RV Zeeleeuw from 2011-04-04 06:23:44 to 2011-04-04 16:08:32
Time Latitude Longitude Temperature Conductivity Salinity ChlorophylA
2011-04-04 06:24:48 51°13.598 2°56.094 16.3865 4.5E-5 0.011404 -3.020363
2011-04-04 06:25:48 51°13.597 2°56.094 16.4424 4.5E-5 0.011398 -3.020363
2011-04-04 06:26:48 51°13.598 2°56.095 16.4229 4.5E-5 0.011393 -3.020363
2011-04-04 06:27:48 51°13.598 2°56.094 16.4315 4.5E-5 0.011388 -3.020363
2011-04-04 06:28:48 51°13.599 2°56.095 16.4249 4.5E-5 0.011383 -3.020363
2011-04-04 06:29:49 51°13.599 2°56.095 16.4547 4.5E-5 0.011379 -3.020363
2011-04-04 06:30:48 51°13.599 2°56.095 16.484 4.5E-5 0.011374 -3.020363
2011-04-04 06:31:48 51°13.599 2°56.096 16.4811 4.5E-5 0.011369 -3.020363
2011-04-04 06:32:48 51°13.599 2°56.096 16.4788 4.5E-5 0.011364 -3.020363
2011-04-04 06:33:48 51°13.599 2°56.096 16.492 4.5E-5 0.011359 -3.020363
2011-04-04 06:34:48 51°13.599 2°56.096 16.4434 4.5E-5 0.011355 -3.020363
2011-04-04 06:35:47 51°13.598 2°56.095 16.4824 4.5E-5 0.011351 -3.020363
2011-04-04 06:36:45 51°13.598 2°56.096 16.508 4.5E-5 0.011346 -3.020363
2011-04-04 06:37:45 51°13.598 2°56.095 16.5243 4.5E-5 0.011341 -3.020363
2011-04-04 06:38:46 51°13.599 2°56.095 16.5401 4.5E-5 0.011336 -3.020363
2011-04-04 06:39:45 51°13.598 2°56.095 16.5264 4.5E-5 0.011332 -3.020363
2011-04-04 06:40:46 51°13.597 2°56.094 16.535 4.5E-5 0.011327 -3.020363
2011-04-04 06:41:46 51°13.597 2°56.094 16.5352 4.5E-5 0.011323 -3.020363
2011-04-04 06:42:46 51°13.597 2°56.095 16.5513 4.5E-5 0.011319 -3.020363
2011-04-04 06:43:46 51°13.597 2°56.094 16.544 4.5E-5 0.011315 -3.020363
2011-04-04 06:44:46 51°13.598 2°56.094 16.5553 4.5E-5 0.011311 -3.020363
2011-04-04 06:45:45 51°13.598 2°56.095 16.5672 4.5E-5 0.011307 -3.020363
2011-04-04 06:46:45 51°13.597 2°56.095 16.593 4.5E-5 0.011304 -3.020363
2011-04-04 06:47:47 51°13.597 2°56.092 16.5746 4.5E-5 0.0113 -3.020363
2011-04-04 06:48:48 51°13.616 2°56.03 16.6443 4.5E-5 0.011296 -3.020363
2011-04-04 06:49:48 51°13.649 2°55.928 16.6435 4.5E-5 0.011292 -3.020363
2011-04-04 06:50:48 51°13.681 2°55.809 16.6671 4.5E-5 0.011288 -3.020363
2011-04-04 06:51:48 51°13.695 2°55.739 16.7156 4.5E-5 0.011283 -3.020363
2011-04-04 06:52:46 51°13.714 2°55.759 16.5467 4.5E-5 0.011278 -3.020363
2011-04-04 06:53:48 51°13.704 2°55.759 16.7159 4.5E-5 0.011275 -3.020363
2011-04-04 06:54:48 51°13.764 2°55.7 16.4675 4.5E-5 0.011272 -3.020363
2011-04-04 06:55:47 51°13.875 2°55.601 16.5048 4.5E-5 0.011268 -3.020363
2011-04-04 06:56:44 51°13.997 2°55.512 16.5665 4.5E-5 0.011262 -3.020363
2011-04-04 06:57:47 51°14.139 2°55.409 16.6318 4.5E-5 0.011256 -3.020363
2011-04-04 06:58:48 51°14.282 2°55.272 16.5844 4.5E-5 0.01125 -3.020363
2011-04-04 06:59:46 51°14.43 2°55.124 16.6525 4.5E-5 0.011242 -3.020363
2011-04-04 07:00:44 51°14.58 2°54.949 16.4445 4.5E-5 0.011235 -3.020363
2011-04-04 07:01:44 51°14.741 2°54.75 16.4837 4.5E-5 0.011228 -3.020363
2011-04-04 07:02:44 51°14.914 2°54.551 16.4367 4.5E-5 0.011217 -3.020363
2011-04-04 07:03:44 51°15.086 2°54.354 16.4809 4.5E-5 0.011205 -3.020363
2011-04-04 07:04:44 51°15.256 2°54.151 16.4849 4.5E-5 0.011192 -3.020363
2011-04-04 07:05:44 51°15.423 2°53.939 16.4467 4.5E-5 0.011179 -3.020363
2011-04-04 07:06:44 51°15.594 2°53.731 16.4042 4.5E-5 0.011167 -3.020363
2011-04-04 07:07:44 51°15.77 2°53.541 16.3908 4.5E-5 0.011156 -3.020363
2011-04-04 07:08:44 51°15.955 2°53.381 16.4164 4.5E-5 0.011144 -3.020363
2011-04-04 07:09:44 51°16.139 2°53.219 16.4236 4.5E-5 0.011132 -3.020363
2011-04-04 07:10:44 51°16.326 2°53.061 16.3642 4.5E-5 0.011119 -3.020363
2011-04-04 07:11:44 51°16.514 2°52.913 16.4202 4.5E-5 0.011105 -3.020363
2011-04-04 07:12:44 51°16.703 2°52.773 16.3643 4.5E-5 0.011092 -3.020363
2011-04-04 07:13:44 51°16.894 2°52.67 16.3665 4.5E-5 0.011079 -3.020363
2011-04-04 07:14:44 51°17.092 2°52.614 16.4242 4.5E-5 0.011067 -3.020363
2011-04-04 07:15:44 51°17.292 2°52.589 16.36 4.5E-5 0.011055 -3.020363
2011-04-04 07:16:44 51°17.494 2°52.565 16.4254 4.5E-5 0.011043 -3.020363
2011-04-04 07:17:44 51°17.694 2°52.536 16.3568 4.5E-5 0.011032 -3.020363
2011-04-04 07:18:44 51°17.886 2°52.605 16.4501 4.5E-5 0.011021 -3.020363
2011-04-04 07:19:44 51°18.072 2°52.704 16.3756 4.5E-5 0.01101 -3.020363
2011-04-04 07:20:44 51°18.243 2°52.856 16.4605 4.5E-5 0.010999 -3.020363
2011-04-04 07:21:44 51°18.426 2°52.972 16.4304 4.5E-5 0.010991 -3.020363
2011-04-04 07:22:44 51°18.61 2°53.079 16.4732 4.5E-5 0.010983 -3.020363
2011-04-04 07:23:44 51°18.797 2°53.173 16.4547 4.5E-5 0.010975 -3.020363
2011-04-04 07:24:44 51°18.985 2°53.263 16.4566 4.5E-5 0.010968 -3.020363
2011-04-04 07:25:44 51°19.171 2°53.35 16.4076 4.5E-5 0.010979 -3.020363
2011-04-04 07:26:44 51°19.358 2°53.436 16.4251 4.5E-5 0.01097 -3.020363
2011-04-04 07:27:44 51°19.546 2°53.518 16.4368 4.5E-5 0.010962 -3.020363
2011-04-04 07:28:44 51°19.732 2°53.601 16.4558 4.5E-5 0.010954 -3.020363
2011-04-04 07:29:44 51°19.918 2°53.69 16.3891 4.5E-5 0.010955 -3.020363
2011-04-04 07:30:44 51°20.104 2°53.781 16.3836 4.5E-5 0.010926 -3.020363
2011-04-04 07:31:44 51°20.293 2°53.864 16.3968 4.5E-5 0.010913 -3.020363
2011-04-04 07:32:44 51°20.481 2°53.946 16.4353 4.5E-5 0.010904 -3.020363
2011-04-04 07:33:44 51°20.67 2°54.026 16.4445 4.5E-5 0.010893 -3.020363
2011-04-04 07:34:44 51°20.859 2°54.112 16.4577 4.5E-5 0.010885 -3.020363
2011-04-04 07:35:44 51°21.048 2°54.197 16.4826 4.5E-5 0.010877 -3.020363
2011-04-04 07:36:44 51°21.24 2°54.276 16.4902 4.5E-5 0.01087 -3.020363
2011-04-04 07:37:44 51°21.431 2°54.357 16.5051 4.5E-5 0.010863 -3.020363
2011-04-04 07:38:44 51°21.622 2°54.437 16.5181 4.5E-5 0.010857 -3.020363
2011-04-04 07:39:44 51°21.814 2°54.513 16.5279 4.5E-5 0.01085 -3.020363
2011-04-04 07:40:44 51°22.005 2°54.594 16.5415 4.5E-5 0.010844 -3.020363
2011-04-04 07:41:44 51°22.198 2°54.669 16.5536 4.5E-5 0.010837 -3.020363
2011-04-04 07:42:44 51°22.391 2°54.75 16.5664 4.5E-5 0.01083 -3.020363
2011-04-04 07:43:44 51°22.586 2°54.825 16.5775 4.5E-5 0.010822 -3.020363
2011-04-04 07:44:44 51°22.779 2°54.9 16.5887 4.5E-5 0.010814 -3.020363
2011-04-04 07:45:44 51°22.97 2°54.977 16.6014 4.5E-5 0.010806 -3.020363
2011-04-04 07:46:44 51°23.16 2°55.055 16.6092 4.5E-5 0.010797 -3.020363
2011-04-04 07:47:44 51°23.349 2°55.138 16.6202 4.5E-5 0.010788 -3.020363
2011-04-04 07:48:44 51°23.538 2°55.223 16.6297 4.5E-5 0.01078 -3.020363
2011-04-04 07:49:44 51°23.728 2°55.305 16.644 4.5E-5 0.010771 -3.020363
2011-04-04 07:50:44 51°23.917 2°55.388 16.6552 4.5E-5 0.010763 -3.020363
2011-04-04 07:51:44 51°24.106 2°55.463 16.6571 4.5E-5 0.010755 -3.020363
2011-04-04 07:52:44 51°24.297 2°55.543 16.6738 4.5E-5 0.010748 -3.020363
2011-04-04 07:53:44 51°24.49 2°55.622 16.6817 4.5E-5 0.01074 -3.020363
2011-04-04 07:54:44 51°24.685 2°55.702 16.6993 4.5E-5 0.010734 -3.020363
2011-04-04 07:55:44 51°24.88 2°55.782 16.6983 4.5E-5 0.010728 -3.020363
2011-04-04 07:56:44 51°25.073 2°55.861 16.7085 4.5E-5 0.010722 -3.020363
2011-04-04 07:57:44 51°25.266 2°55.935 16.7247 4.5E-5 0.010716 -3.020363
2011-04-04 07:58:44 51°25.454 2°56.016 16.7303 4.5E-5 0.01071 -3.020363
2011-04-04 07:59:44 51°25.641 2°56.1 16.7314 4.5E-5 0.010704 -3.020363
2011-04-04 08:00:44 51°25.829 2°56.186 16.751 4.5E-5 0.010698 -3.020363
2011-04-04 08:01:44 51°26.015 2°56.271 16.7625 4.5E-5 0.010692 -3.020363
2011-04-04 08:02:44 51°26.2 2°56.358 16.773 4.5E-5 0.010686 -3.020363
2011-04-04 08:03:44 51°26.387 2°56.44 16.7716 4.5E-5 0.010679 -3.020363
2011-04-04 08:04:44 51°26.575 2°56.52 16.7798 4.5E-5 0.010672 -3.020363
2011-04-04 08:05:44 51°26.762 2°56.597 16.7877 4.5E-5 0.010664 -3.020363
2011-04-04 08:06:44 51°26.947 2°56.679 16.7957 4.5E-5 0.010656 -3.020363
2011-04-04 08:07:44 51°27.133 2°56.752 16.8027 4.5E-5 0.010648 -3.020363
2011-04-04 08:08:44 51°27.317 2°56.832 16.8105 4.5E-5 0.01064 -3.020363
2011-04-04 08:09:44 51°27.504 2°56.913 16.8165 4.5E-5 0.010631 -3.020363
2011-04-04 08:10:44 51°27.693 2°56.993 16.8374 4.5E-5 0.010623 -3.020363
2011-04-04 08:11:44 51°27.885 2°57.072 16.8373 4.5E-5 0.010615 -3.020363
2011-04-04 08:12:44 51°28.075 2°57.151 16.8387 4.5E-5 0.010607 -3.020363
2011-04-04 08:13:44 51°28.262 2°57.227 16.8557 4.5E-5 0.010598 -3.020363
2011-04-04 08:14:44 51°28.449 2°57.298 16.8563 4.5E-5 0.010589 -3.020363
2011-04-04 08:15:44 51°28.635 2°57.369 16.8615 4.5E-5 0.010579 -3.020363
2011-04-04 08:16:44 51°28.822 2°57.446 16.882 4.5E-5 0.010571 -3.020363
2011-04-04 08:17:44 51°29.01 2°57.52 16.8827 4.5E-5 0.010564 -3.020363
2011-04-04 08:18:44 51°29.198 2°57.596 16.8849 4.5E-5 0.010558 -3.020363
2011-04-04 08:19:44 51°29.384 2°57.675 16.8873 4.5E-5 0.010552 -3.020363
2011-04-04 08:20:44 51°29.569 2°57.752 16.9103 4.5E-5 0.010546 -3.020363
2011-04-04 08:21:44 51°29.756 2°57.824 16.9168 4.5E-5 0.010539 -3.020363
2011-04-04 08:22:44 51°29.943 2°57.898 16.9197 4.5E-5 0.010532 -3.020363
2011-04-04 08:23:44 51°30.13 2°57.975 16.9254 4.5E-5 0.010525 -3.020363
2011-04-04 08:24:44 51°30.319 2°58.053 16.9263 4.5E-5 0.010518 -3.020363
2011-04-04 08:25:44 51°30.508 2°58.136 16.9406 4.5E-5 0.010511 -3.020363
2011-04-04 08:26:44 51°30.697 2°58.223 16.9433 4.5E-5 0.010503 -3.020363
2011-04-04 08:27:44 51°30.887 2°58.31 16.9541 4.5E-5 0.010495 -3.020363
2011-04-04 08:28:44 51°31.075 2°58.394 16.9733 4.5E-5 0.010487 -3.020363
2011-04-04 08:29:44 51°31.262 2°58.474 16.9741 -999 -999 -3.020363
2011-04-04 08:30:44 51°31.447 2°58.549 16.9841 -999 -999 -3.020363
2011-04-04 08:31:44 51°31.629 2°58.63 16.9998 4.5E-5 0.010462 -3.020363
2011-04-04 08:32:44 51°31.814 2°58.715 16.994 4.5E-5 0.010454 -3.020363
2011-04-04 08:33:44 51°31.998 2°58.798 17.0025 4.5E-5 0.010446 -3.020363
2011-04-04 08:34:44 51°32.183 2°58.88 17.0154 4.5E-5 0.010438 -3.020363
2011-04-04 08:35:44 51°32.369 2°58.957 17.025 4.5E-5 0.010429 -3.020363
2011-04-04 08:36:44 51°32.554 2°59.03 17.0253 4.5E-5 0.010422 -3.020363
2011-04-04 08:37:44 51°32.739 2°59.128 17.026 4.5E-5 0.010415 -3.020363
2011-04-04 08:38:44 51°32.925 2°59.202 17.0406 -999 -999 -3.020363
2011-04-04 08:39:44 51°33.115 2°59.249 17.0636 4.5E-5 0.010401 -3.020363
2011-04-04 08:40:44 51°33.305 2°59.292 17.0716 4.5E-5 0.010394 -3.020363
2011-04-04 08:41:44 51°33.494 2°59.337 17.0793 4.5E-5 0.010386 -3.020363
2011-04-04 08:42:44 51°33.683 2°59.381 17.0883 4.5E-5 0.010378 -3.020363
2011-04-04 08:43:44 51°33.87 2°59.427 17.0913 4.5E-5 0.01037 -3.020363
2011-04-04 08:44:44 51°34.057 2°59.47 17.0976 4.5E-5 0.010361 -3.020363
2011-04-04 08:45:44 51°34.245 2°59.508 17.1049 4.5E-5 0.010354 -3.020363
2011-04-04 08:46:44 51°34.434 2°59.552 17.1161 4.5E-5 0.010345 -3.020363
2011-04-04 08:47:44 51°34.618 2°59.605 17.0958 4.5E-5 0.010338 -3.020363
2011-04-04 08:48:44 51°34.762 2°59.789 17.1388 4.5E-5 0.010326 -3.020363
2011-04-04 08:49:44 51°34.933 2°59.909 17.1293 4.5E-5 0.010318 -3.020363
2011-04-04 08:50:44 51°35.06 3°0.013 17.1446 4.5E-5 0.01031 -3.020363
2011-04-04 08:51:44 51°35.087 3°0.066 17.173 4.5E-5 0.010302 -3.020363
2011-04-04 08:52:44 51°35.079 3°0.056 17.1577 4.5E-5 0.010295 -3.020363
2011-04-04 08:53:44 51°35.065 3°0.038 17.1839 4.5E-5 0.010288 -3.020363
2011-04-04 08:54:44 51°35.049 3°0.018 17.1914 4.5E-5 0.010279 -3.020363
2011-04-04 08:55:44 51°35.032 3°0.001 17.1859 4.5E-5 0.010272 -3.020363
2011-04-04 08:56:44 51°35.015 2°59.984 17.1973 4.5E-5 0.010264 -3.020363
2011-04-04 08:57:44 51°34.995 2°59.969 17.2178 4.5E-5 0.010256 -3.020363
2011-04-04 08:58:44 51°34.976 2°59.957 17.2098 4.5E-5 0.010248 -3.020363
2011-04-04 08:59:44 51°34.956 2°59.946 17.2103 4.5E-5 0.01024 -3.020363
2011-04-04 09:00:44 51°34.936 2°59.935 17.2382 4.5E-5 0.010232 -3.020363
2011-04-04 09:01:44 51°34.916 2°59.923 17.2417 4.5E-5 0.010224 -3.020363
2011-04-04 09:02:44 51°34.896 2°59.912 17.247 4.5E-5 0.010214 -3.020363
2011-04-04 09:03:44 51°34.878 2°59.9 17.2602 4.5E-5 0.010205 -3.020363
2011-04-04 09:04:44 51°34.86 2°59.889 17.2629 4.5E-5 0.010195 -3.020363
2011-04-04 09:05:44 51°34.843 2°59.878 17.2536 4.5E-5 0.010185 -3.020363
2011-04-04 09:06:44 51°34.826 2°59.864 17.2735 4.5E-5 0.010175 -3.020363
2011-04-04 09:07:44 51°34.808 2°59.849 17.287 4.5E-5 0.010165 -3.020363
2011-04-04 09:08:44 51°34.791 2°59.835 17.298 4.5E-5 0.010154 -3.020363
2011-04-04 09:09:44 51°34.774 2°59.822 17.3099 4.5E-5 0.010143 -3.020363
2011-04-04 09:10:44 51°34.758 2°59.809 17.3165 4.5E-5 0.010132 -3.020363
2011-04-04 09:11:44 51°34.74 2°59.796 17.3159 4.5E-5 0.010121 -3.020363
2011-04-04 09:12:44 51°34.721 2°59.783 17.3311 4.5E-5 0.010111 -3.020363
2011-04-04 09:13:44 51°34.702 2°59.771 17.2879 4.5E-5 0.010125 -3.020363
2011-04-04 09:14:44 51°34.682 2°59.758 17.2941 4.5E-5 0.010122 -3.020363
2011-04-04 09:15:44 51°34.664 2°59.748 17.3014 4.5E-5 0.010116 -3.020363
2011-04-04 09:16:44 51°34.646 2°59.738 17.3 4.5E-5 0.010106 -3.020363
2011-04-04 09:17:44 51°34.628 2°59.73 17.3075 4.5E-5 0.010096 -3.020363
2011-04-04 09:18:44 51°34.611 2°59.721 17.3168 4.5E-5 0.010086 -3.020363
2011-04-04 09:19:44 51°34.592 2°59.711 17.3204 4.5E-5 0.010076 -3.020363
2011-04-04 09:20:44 51°34.573 2°59.702 17.3276 4.5E-5 0.010064 -3.020363
2011-04-04 09:21:44 51°34.553 2°59.691 17.3307 4.5E-5 0.010053 -3.020363
2011-04-04 09:22:44 51°34.533 2°59.681 17.3366 4.5E-5 0.010043 -3.020363
2011-04-04 09:23:44 51°34.513 2°59.672 17.3496 4.5E-5 0.010033 -3.020363
2011-04-04 09:24:44 51°34.494 2°59.662 17.3526 4.5E-5 0.010025 -3.020363
2011-04-04 09:25:44 51°34.473 2°59.651 17.3596 4.5E-5 0.010014 -3.020363
2011-04-04 09:26:44 51°34.452 2°59.643 17.3799 4.5E-5 0.010004 -3.020363
2011-04-04 09:27:44 51°34.433 2°59.635 17.3777 4.5E-5 0.009995 -3.020363
2011-04-04 09:28:44 51°34.415 2°59.627 17.3843 4.5E-5 0.009985 -3.020363
2011-04-04 09:29:44 51°34.395 2°59.619 17.4035 4.5E-5 0.009976 -3.020363
2011-04-04 09:30:44 51°34.376 2°59.611 17.4202 4.5E-5 0.009967 -3.020363
2011-04-04 09:31:44 51°34.368 2°59.598 17.4164 4.5E-5 0.009956 -3.020363
2011-04-04 09:32:44 51°34.363 2°59.58 17.4362 4.5E-5 0.009945 -3.020363
2011-04-04 09:33:44 51°34.385 2°59.533 17.4305 4.5E-5 0.009934 -3.020363
2011-04-04 09:34:44 51°34.427 2°59.496 17.4415 4.5E-5 0.009928 -3.020363
2011-04-04 09:35:44 51°34.471 2°59.507 17.4648 4.5E-5 0.00992 -3.020363
2011-04-04 09:36:44 51°34.516 2°59.536 17.4691 4.5E-5 0.00991 -3.020363
2011-04-04 09:37:44 51°34.558 2°59.575 17.484 4.5E-5 0.009902 -3.020363
2011-04-04 09:38:44 51°34.595 2°59.613 17.5027 4.5E-5 0.009894 -3.020363
2011-04-04 09:39:44 51°34.631 2°59.643 17.5029 4.5E-5 0.009887 -3.020363
2011-04-04 09:40:44 51°34.665 2°59.675 17.5136 4.5E-5 0.009878 -3.020363
2011-04-04 09:41:44 51°34.697 2°59.713 17.53 4.5E-5 0.009871 -3.020363
2011-04-04 09:42:44 51°34.732 2°59.745 17.5484 4.5E-5 0.009863 -3.020363
2011-04-04 09:43:44 51°34.768 2°59.766 17.5565 4.5E-5 0.009856 -3.020363
2011-04-04 09:44:44 51°34.806 2°59.783 17.5557 4.5E-5 0.009848 -3.020363
2011-04-04 09:45:44 51°34.844 2°59.803 17.583 4.5E-5 0.009842 -3.020363
2011-04-04 09:46:44 51°34.878 2°59.837 17.5899 4.5E-5 0.009834 -3.020363
2011-04-04 09:47:44 51°34.91 2°59.88 17.6062 4.5E-5 0.009826 -3.020363
2011-04-04 09:48:44 51°34.942 2°59.925 17.6143 4.5E-5 0.009819 -3.020363
2011-04-04 09:49:44 51°34.976 2°59.968 17.6196 4.5E-5 0.009813 -3.020363
2011-04-04 09:50:44 51°35.009 3°0.01 17.6246 4.5E-5 0.009806 -3.020363
2011-04-04 09:51:44 51°35.043 3°0.052 17.6543 4.5E-5 0.0098 -3.020363
2011-04-04 09:52:44 51°35.078 3°0.093 17.6572 4.5E-5 0.009794 -3.020363
2011-04-04 09:53:44 51°35.112 3°0.131 17.6725 4.5E-5 0.009787 -3.020363
2011-04-04 09:54:44 51°35.14 3°0.182 17.6884 4.5E-5 0.00978 -3.020363
2011-04-04 09:55:44 51°35.155 3°0.249 17.7 4.5E-5 0.009773 -3.020363
2011-04-04 09:56:44 51°35.161 3°0.324 17.7038 4.5E-5 0.009768 -3.020363
2011-04-04 09:57:44 51°35.146 3°0.406 17.7249 4.5E-5 0.009765 -3.020363
2011-04-04 09:58:44 51°35.109 3°0.491 17.7327 4.5E-5 0.00976 -3.020363
2011-04-04 09:59:44 51°35.057 3°0.568 17.7513 4.5E-5 0.009756 -3.020363
2011-04-04 10:00:44 51°35.013 3°0.624 17.767 4.5E-5 0.009752 -3.020363
2011-04-04 10:01:44 51°34.991 3°0.683 17.7805 4.5E-5 0.009748 -3.020363
2011-04-04 10:02:44 51°34.917 3°0.88 17.8041 4.5E-5 0.009746 -3.020363
2011-04-04 10:03:44 51°34.755 3°1.125 17.8711 4.5E-5 0.009744 -3.020363
2011-04-04 10:04:44 51°34.531 3°1.249 17.8699 4.5E-5 0.009733 -3.020363
2011-04-04 10:05:44 51°34.299 3°1.343 17.8804 4.5E-5 0.009723 -3.020363
2011-04-04 10:06:44 51°34.064 3°1.436 17.894 4.5E-5 0.009712 -3.020363
2011-04-04 10:07:44 51°33.829 3°1.507 17.9104 4.5E-5 0.009699 -3.020363
2011-04-04 10:08:44 51°33.594 3°1.552 17.9245 4.5E-5 0.009685 -3.020363
2011-04-04 10:09:44 51°33.361 3°1.602 17.946 4.5E-5 0.00967 -3.020363
2011-04-04 10:10:44 51°33.129 3°1.65 17.9572 4.5E-5 0.009655 -3.020363
2011-04-04 10:11:44 51°32.897 3°1.699 17.989 4.5E-5 0.009641 -3.020363
2011-04-04 10:12:44 51°32.666 3°1.754 17.9775 4.5E-5 0.009627 -3.020363
2011-04-04 10:13:44 51°32.436 3°1.804 18.0028 4.5E-5 0.009611 -3.020363
2011-04-04 10:14:44 51°32.206 3°1.858 18.0277 4.5E-5 0.009595 -3.020363
2011-04-04 10:15:44 51°31.978 3°1.914 18.0352 4.5E-5 0.009581 -3.020363
2011-04-04 10:16:44 51°31.75 3°1.962 18.027 4.5E-5 0.009564 -3.020363
2011-04-04 10:17:44 51°31.534 3°2.06 18.0805 4.5E-5 0.009547 -3.020363
2011-04-04 10:18:44 51°31.319 3°2.162 18.0892 4.5E-5 0.009535 -3.020363
2011-04-04 10:19:44 51°31.103 3°2.261 18.0998 4.5E-5 0.009523 -3.020363
2011-04-04 10:20:44 51°30.886 3°2.36 18.1104 4.5E-5 0.009509 -3.020363
2011-04-04 10:21:44 51°30.669 3°2.461 18.1042 4.5E-5 0.009495 -3.020363
2011-04-04 10:22:44 51°30.466 3°2.617 18.1365 4.5E-5 0.009486 -3.020363
2011-04-04 10:23:44 51°30.264 3°2.774 18.1424 4.5E-5 0.009473 -3.020363
2011-04-04 10:24:44 51°30.061 3°2.932 18.1624 4.5E-5 0.009459 -3.020363
2011-04-04 10:25:44 51°29.857 3°3.087 18.1869 4.5E-5 0.009446 -3.020363
2011-04-04 10:26:44 51°29.654 3°3.248 18.194 4.5E-5 0.009437 -3.020363
2011-04-04 10:27:44 51°29.449 3°3.414 18.1867 4.5E-5 0.009424 -3.020363
2011-04-04 10:28:44 51°29.244 3°3.58 18.2123 4.5E-5 0.009412 -3.020363
2011-04-04 10:29:44 51°29.041 3°3.747 18.2229 4.5E-5 0.0094 -3.020363
2011-04-04 10:30:44 51°28.84 3°3.915 17.6022 4.5E-5 0.009379 -3.020363
2011-04-04 10:31:44 51°28.638 3°4.074 17.7802 4.5E-5 0.00935 -3.020363
2011-04-04 10:32:44 51°28.437 3°4.239 17.7803 4.5E-5 0.009335 -3.020363
2011-04-04 10:33:44 51°28.22 3°4.212 17.787 4.5E-5 0.009323 -3.020363
2011-04-04 10:34:44 51°28.144 3°3.913 17.7543 4.5E-5 0.009308 -3.020363
2011-04-04 10:35:44 51°28.183 3°3.716 17.696 4.5E-5 0.009297 -3.020363
2011-04-04 10:36:44 51°28.209 3°3.636 17.7241 4.5E-5 0.00929 -3.020363
2011-04-04 10:37:44 51°28.226 3°3.58 17.7804 4.5E-5 0.009278 -3.020363
2011-04-04 10:38:44 51°28.23 3°3.539 17.7353 4.5E-5 0.009266 -3.020363
2011-04-04 10:39:44 51°28.23 3°3.516 17.7762 4.5E-5 0.009259 -3.020363
2011-04-04 10:40:44 51°28.228 3°3.502 17.7459 4.5E-5 0.009254 -3.020363
2011-04-04 10:41:44 51°28.224 3°3.495 17.7374 4.5E-5 0.00925 -3.020363
2011-04-04 10:42:44 51°28.219 3°3.494 17.7842 4.5E-5 0.009246 -3.020363
2011-04-04 10:43:44 51°28.212 3°3.497 17.7858 4.5E-5 0.009241 -3.020363
2011-04-04 10:44:44 51°28.203 3°3.502 17.7919 4.5E-5 0.009235 -3.020363
2011-04-04 10:45:44 51°28.202 3°3.507 17.8354 4.5E-5 0.009229 -3.020363
2011-04-04 10:46:44 51°28.255 3°3.472 17.8802 4.5E-5 0.009224 -3.020363
2011-04-04 10:47:44 51°28.294 3°3.425 17.831 -999 -999 -3.020363
2011-04-04 10:48:44 51°28.313 3°3.394 17.8611 4.5E-5 0.009206 -3.020363
2011-04-04 10:49:44 51°28.324 3°3.372 17.8969 4.5E-5 0.009199 -3.020363
2011-04-04 10:50:44 51°28.328 3°3.357 17.8333 4.5E-5 0.009193 -3.020363
2011-04-04 10:51:44 51°28.327 3°3.35 17.8838 4.5E-5 0.009189 -3.020363
2011-04-04 10:52:44 51°28.324 3°3.349 17.897 4.5E-5 0.009186 -3.020363
2011-04-04 10:53:44 51°28.32 3°3.354 17.8865 4.5E-5 0.009182 -3.020363
2011-04-04 10:54:44 51°28.314 3°3.361 17.908 4.5E-5 0.009178 -3.020363
2011-04-04 10:55:44 51°28.307 3°3.371 17.9039 4.5E-5 0.009172 -3.020363
2011-04-04 10:56:44 51°28.297 3°3.383 17.9046 4.5E-5 0.009166 -3.020363
2011-04-04 10:57:44 51°28.286 3°3.394 17.907 4.5E-5 0.009159 -3.020363
2011-04-04 10:58:44 51°28.273 3°3.406 17.9262 4.5E-5 0.009152 -3.020363
2011-04-04 10:59:44 51°28.262 3°3.417 17.9458 4.5E-5 0.009144 -3.020363
2011-04-04 11:00:44 51°28.25 3°3.43 17.9404 4.5E-5 0.009137 -3.020363
2011-04-04 11:01:44 51°28.239 3°3.444 17.9592 4.5E-5 0.009129 -3.020363
2011-04-04 11:02:44 51°28.229 3°3.457 17.95 4.5E-5 0.009122 -3.020363
2011-04-04 11:03:44 51°28.22 3°3.471 17.9468 4.5E-5 0.009114 -3.020363
2011-04-04 11:04:44 51°28.211 3°3.485 17.9663 4.5E-5 0.009107 -3.020363
2011-04-04 11:05:44 51°28.203 3°3.501 17.9636 4.5E-5 0.009099 -3.020363
2011-04-04 11:06:44 51°28.194 3°3.517 17.9671 4.5E-5 0.00909 -3.020363
2011-04-04 11:07:44 51°28.186 3°3.535 17.9699 4.5E-5 0.009082 -3.020363
2011-04-04 11:08:44 51°28.178 3°3.552 17.9842 0.000456 0.010096 -3.020363
2011-04-04 11:09:44 51°28.174 3°3.57 17.9762 4.5E-5 0.009064 -3.020363
2011-04-04 11:10:44 51°28.205 3°3.561 17.9823 4.5E-5 0.009056 -3.020363
2011-04-04 11:11:44 51°28.249 3°3.512 17.9861 4.5E-5 0.009048 -3.020363
2011-04-04 11:12:44 51°28.278 3°3.465 18.0002 4.5E-5 0.00904 -3.020363
2011-04-04 11:13:44 51°28.293 3°3.442 17.9934 4.5E-5 0.009033 -3.020363
2011-04-04 11:14:44 51°28.302 3°3.432 17.995 4.5E-5 0.009028 -3.020363
2011-04-04 11:15:44 51°28.307 3°3.432 18.006 4.5E-5 0.009024 -3.020363
2011-04-04 11:16:44 51°28.309 3°3.44 18.0184 4.5E-5 0.00902 -3.020363
2011-04-04 11:17:44 51°28.31 3°3.452 18.0141 4.5E-5 0.009016 -3.020363
2011-04-04 11:18:44 51°28.309 3°3.471 18.0154 4.5E-5 0.009012 -3.020363
2011-04-04 11:19:44 51°28.308 3°3.492 18.0146 4.5E-5 0.009007 -3.020363
2011-04-04 11:20:44 51°28.305 3°3.513 18.0214 4.5E-5 0.009001 -3.020363
2011-04-04 11:21:44 51°28.301 3°3.536 18.0227 4.5E-5 0.008996 -3.020363
2011-04-04 11:22:44 51°28.297 3°3.559 18.0269 4.5E-5 0.00899 -3.020363
2011-04-04 11:23:44 51°28.294 3°3.582 18.0322 4.5E-5 0.008985 -3.020363
2011-04-04 11:24:44 51°28.291 3°3.607 18.0303 4.5E-5 0.008981 -3.020363
2011-04-04 11:25:44 51°28.29 3°3.631 18.0364 4.5E-5 0.008978 -3.020363
2011-04-04 11:26:44 51°28.287 3°3.656 18.0406 4.5E-5 0.008974 -3.020363
2011-04-04 11:27:44 51°28.286 3°3.682 18.0449 4.5E-5 0.00897 -3.020363
2011-04-04 11:28:44 51°28.284 3°3.709 18.045 4.5E-5 0.008966 -3.020363
2011-04-04 11:29:44 51°28.284 3°3.737 18.0427 4.5E-5 0.008962 -3.020363
2011-04-04 11:30:44 51°28.283 3°3.766 18.0456 0.000148 0.009063 -3.020363
2011-04-04 11:31:44 51°28.283 3°3.796 18.0558 4.5E-5 0.008953 -3.020363
2011-04-04 11:32:44 51°28.284 3°3.825 18.0899 4.5E-5 0.008964 -3.020363
2011-04-04 11:33:44 51°28.286 3°3.855 18.0857 4.5E-5 0.008957 -3.020363
2011-04-04 11:34:44 51°28.287 3°3.886 18.0885 4.5E-5 0.008952 -3.020363
2011-04-04 11:35:44 51°28.287 3°3.92 18.0903 -999 -999 -3.020363
2011-04-04 11:36:44 51°28.287 3°3.954 18.0932 -999 -999 -3.020363
2011-04-04 11:37:44 51°28.287 3°3.988 18.0953 4.5E-5 0.008935 -3.020363
2011-04-04 11:38:44 51°28.287 3°4.024 18.1006 4.5E-5 0.00893 -3.020363
2011-04-04 11:39:44 51°28.287 3°4.06 18.1036 4.5E-5 0.008924 -3.020363
2011-04-04 11:40:44 51°28.288 3°4.096 18.1072 4.5E-5 0.008917 -3.020363
2011-04-04 11:41:44 51°28.288 3°4.135 18.1118 -999 -999 -3.020363
2011-04-04 11:42:44 51°28.289 3°4.173 18.1324 4.5E-5 0.008906 -3.020363
2011-04-04 11:43:44 51°28.29 3°4.211 18.134 4.5E-5 0.008899 -3.020363
2011-04-04 11:44:44 51°28.292 3°4.25 18.139 4.5E-5 0.008892 -3.020363
2011-04-04 11:45:44 51°28.293 3°4.289 18.1449 4.5E-5 0.008885 -3.020363
2011-04-04 11:46:44 51°28.295 3°4.329 18.148 4.5E-5 0.008878 -3.020363
2011-04-04 11:47:44 51°28.297 3°4.368 18.1518 4.5E-5 0.008871 -3.020363
2011-04-04 11:48:44 51°28.301 3°4.409 18.1545 4.5E-5 0.008863 -3.020363
2011-04-04 11:49:44 51°28.304 3°4.449 18.16 4.5E-5 0.008856 -3.020363
2011-04-04 11:50:44 51°28.308 3°4.49 18.1663 4.5E-5 0.008848 -3.020363
2011-04-04 11:51:44 51°28.312 3°4.533 18.1694 4.5E-5 0.00884 -3.020363
2011-04-04 11:52:44 51°28.315 3°4.576 18.1747 4.5E-5 0.008832 -3.020363
2011-04-04 11:53:44 51°28.319 3°4.619 18.1819 4.5E-5 0.008824 -3.020363
2011-04-04 11:54:44 51°28.323 3°4.664 18.1884 -999 -999 -3.020363
2011-04-04 11:55:44 51°28.326 3°4.71 18.1922 0.002512 0.019112 -3.020363
2011-04-04 11:56:44 51°28.33 3°4.756 18.1955 -999 -999 -3.020363
2011-04-04 11:57:44 51°28.334 3°4.803 18.2031 4.5E-5 0.008797 -3.020363
2011-04-04 11:58:44 51°28.339 3°4.851 18.2076 4.5E-5 0.00879 -3.020363
2011-04-04 11:59:44 51°28.343 3°4.899 18.2152 4.5E-5 0.008784 -3.020363
2011-04-04 12:00:44 51°28.348 3°4.948 18.2175 4.5E-5 0.008777 -3.020363
2011-04-04 12:01:44 51°28.353 3°4.997 18.2225 4.5E-5 0.008771 -3.020363
2011-04-04 12:02:44 51°28.358 3°5.049 18.2293 4.5E-5 0.008765 -3.020363
2011-04-04 12:03:44 51°28.362 3°5.101 18.2369 4.5E-5 0.008758 -3.020363
2011-04-04 12:04:44 51°28.367 3°5.153 18.2431 4.5E-5 0.008751 -3.020363
2011-04-04 12:05:44 51°28.371 3°5.205 18.2446 4.5E-5 0.008744 -3.020363
2011-04-04 12:06:44 51°28.376 3°5.258 18.2554 4.5E-5 0.008737 -3.020363
2011-04-04 12:07:44 51°28.381 3°5.312 18.2577 4.5E-5 0.00873 -3.020363
2011-04-04 12:08:44 51°28.386 3°5.365 18.2612 4.5E-5 0.008724 -3.020363
2011-04-04 12:09:44 51°28.392 3°5.418 18.2708 4.5E-5 0.008718 -3.020363
2011-04-04 12:10:44 51°28.397 3°5.472 18.2723 4.5E-5 0.008712 -3.020363
2011-04-04 12:11:44 51°28.413 3°5.514 18.2726 4.5E-5 0.008707 -3.020363
2011-04-04 12:12:44 51°28.428 3°5.421 18.2996 4.5E-5 0.008702 -3.020363
2011-04-04 12:13:44 51°28.392 3°5.147 18.321 4.5E-5 0.0087 -3.020363
2011-04-04 12:14:44 51°28.373 3°4.844 18.3237 4.5E-5 0.008693 -3.020363
2011-04-04 12:15:44 51°28.355 3°4.541 18.3267 4.5E-5 0.008686 -3.020363
2011-04-04 12:16:44 51°28.333 3°4.24 18.3308 4.5E-5 0.008679 -3.020363
2011-04-04 12:17:44 51°28.299 3°3.941 18.3335 4.5E-5 0.008671 -3.020363
2011-04-04 12:18:44 51°28.268 3°3.678 18.3356 4.5E-5 0.008663 -3.020363
2011-04-04 12:19:44 51°28.242 3°3.588 18.3407 4.5E-5 0.008654 -3.020363
2011-04-04 12:20:44 51°28.251 3°3.607 18.3417 4.5E-5 0.008646 -3.020363
2011-04-04 12:21:48 51°28.265 3°3.659 18.349 4.5E-5 0.008639 -3.020363
2011-04-04 12:22:46 51°28.279 3°3.708 18.3567 4.5E-5 0.008635 -3.020363
2011-04-04 12:23:44 51°28.294 3°3.759 18.3568 4.5E-5 0.008631 -3.020363
2011-04-04 12:24:44 51°28.343 3°3.802 18.356 4.5E-5 0.008625 -3.020363
2011-04-04 12:25:44 51°28.416 3°3.83 18.3728 4.5E-5 0.008621 -3.020363
2011-04-04 12:26:44 51°28.494 3°3.892 18.37 4.5E-5 0.008615 -3.020363
2011-04-04 12:27:44 51°28.554 3°3.982 18.3705 4.5E-5 0.00861 -3.020363
2011-04-04 12:28:44 51°28.603 3°4.064 18.3797 4.5E-5 0.008606 -3.020363
2011-04-04 12:29:44 51°28.645 3°4.134 18.3755 4.5E-5 0.008603 -3.020363
2011-04-04 12:30:44 51°28.682 3°4.196 18.3841 4.5E-5 0.0086 -3.020363
2011-04-04 12:31:44 51°28.717 3°4.254 18.3816 4.5E-5 0.008598 -3.020363
2011-04-04 12:32:44 51°28.749 3°4.31 18.383 4.5E-5 0.008594 -3.020363
2011-04-04 12:33:44 51°28.781 3°4.365 18.3885 4.5E-5 0.008592 -3.020363
2011-04-04 12:34:44 51°28.815 3°4.421 18.3943 4.5E-5 0.008588 -3.020363
2011-04-04 12:35:44 51°28.85 3°4.479 18.3927 4.5E-5 0.008585 -3.020363
2011-04-04 12:36:44 51°28.886 3°4.54 18.3905 4.5E-5 0.008582 -3.020363
2011-04-04 12:37:44 51°28.923 3°4.605 18.3927 4.5E-5 0.008579 -3.020363
2011-04-04 12:38:44 51°28.957 3°4.677 18.4021 4.5E-5 0.008576 -3.020363
2011-04-04 12:39:44 51°28.991 3°4.749 18.4005 4.5E-5 0.008574 -3.020363
2011-04-04 12:40:44 51°29.026 3°4.819 18.403 4.5E-5 0.008572 -3.020363
2011-04-04 12:41:44 51°29.063 3°4.886 18.4018 4.5E-5 0.008571 -3.020363
2011-04-04 12:42:44 51°29.1 3°4.952 18.4058 4.5E-5 0.00857 -3.020363
2011-04-04 12:43:44 51°29.138 3°5.015 18.408 0.000148 0.008692 -3.020363
2011-04-04 12:44:44 51°29.176 3°5.079 18.4092 4.5E-5 0.008566 -3.020363
2011-04-04 12:45:44 51°29.214 3°5.148 18.4157 4.5E-5 0.008565 -3.020363
2011-04-04 12:46:44 51°29.247 3°5.247 18.4183 4.5E-5 0.008562 -3.020363
2011-04-04 12:47:44 51°29.268 3°5.377 18.4518 4.5E-5 0.00856 -3.020363
2011-04-04 12:48:44 51°29.274 3°5.515 18.4559 4.5E-5 0.008558 -3.020363
2011-04-04 12:49:44 51°29.263 3°5.649 18.4515 4.5E-5 0.008557 -3.020363
2011-04-04 12:50:44 51°29.239 3°5.77 18.454 4.5E-5 0.008557 -3.020363
2011-04-04 12:51:44 51°29.211 3°5.868 18.4615 4.5E-5 0.008556 -3.020363
2011-04-04 12:52:44 51°29.195 3°5.937 18.4605 4.5E-5 0.008556 -3.020363
2011-04-04 12:53:44 51°29.187 3°5.997 18.4757 4.5E-5 0.008555 -3.020363
2011-04-04 12:54:44 51°29.145 3°6.063 18.4751 4.5E-5 0.008554 -3.020363
2011-04-04 12:55:44 51°28.99 3°6.188 18.5647 4.5E-5 0.008554 -3.020363
2011-04-04 12:56:44 51°28.811 3°6.374 18.6054 4.5E-5 0.008551 -3.020363
2011-04-04 12:57:44 51°28.633 3°6.57 18.6107 4.5E-5 0.008545 -3.020363
2011-04-04 12:58:44 51°28.454 3°6.762 18.6107 4.5E-5 0.008537 -3.020363
2011-04-04 12:59:44 51°28.274 3°6.955 18.5954 4.5E-5 0.008529 -3.020363
2011-04-04 13:00:44 51°28.095 3°7.143 18.5889 4.5E-5 0.00852 -3.020363
2011-04-04 13:01:44 51°27.918 3°7.33 18.5948 4.5E-5 0.008511 -3.020363
2011-04-04 13:02:44 51°27.738 3°7.515 18.5941 4.5E-5 0.008502 -3.020363
2011-04-04 13:03:44 51°27.56 3°7.701 18.6046 4.5E-5 0.008493 -3.020363
2011-04-04 13:04:44 51°27.372 3°7.844 18.6191 4.5E-5 0.008485 -3.020363
2011-04-04 13:05:44 51°27.174 3°7.88 18.598 4.5E-5 0.008475 -3.020363
2011-04-04 13:06:44 51°26.975 3°7.912 18.6085 4.5E-5 0.008464 -3.020363
2011-04-04 13:07:44 51°26.776 3°7.947 18.6041 4.5E-5 0.008456 -3.020363
2011-04-04 13:08:44 51°26.579 3°7.985 18.6186 4.5E-5 0.008446 -3.020363
2011-04-04 13:09:44 51°26.415 3°8.014 18.6051 0.000148 0.008568 -3.020363
2011-04-04 13:10:44 51°26.363 3°7.99 18.6026 4.5E-5 0.008424 -3.020363
2011-04-04 13:11:44 51°26.367 3°8.007 18.5563 4.5E-5 0.00841 -3.020363
2011-04-04 13:12:44 51°26.382 3°8.041 18.5536 4.5E-5 0.008399 -3.020363
2011-04-04 13:13:44 51°26.399 3°8.085 18.5567 4.5E-5 0.00839 -3.020363
2011-04-04 13:14:44 51°26.415 3°8.131 18.5555 4.5E-5 0.008385 -3.020363
2011-04-04 13:15:44 51°26.431 3°8.176 18.5729 4.5E-5 0.008382 -3.020363
2011-04-04 13:16:44 51°26.447 3°8.221 18.5666 4.5E-5 0.00838 -3.020363
2011-04-04 13:17:44 51°26.463 3°8.266 18.5899 4.5E-5 0.008379 -3.020363
2011-04-04 13:18:44 51°26.48 3°8.31 18.585 4.5E-5 0.008376 -3.020363
2011-04-04 13:19:44 51°26.498 3°8.355 18.5913 4.5E-5 0.008373 -3.020363
2011-04-04 13:20:44 51°26.516 3°8.399 18.5947 4.5E-5 0.008369 -3.020363
2011-04-04 13:21:44 51°26.536 3°8.442 18.5994 4.5E-5 0.008365 -3.020363
2011-04-04 13:22:44 51°26.555 3°8.484 18.6142 4.5E-5 0.008361 -3.020363
2011-04-04 13:23:44 51°26.574 3°8.526 18.6276 4.5E-5 0.008356 -3.020363
2011-04-04 13:24:44 51°26.594 3°8.57 18.6318 4.5E-5 0.008351 -3.020363
2011-04-04 13:25:44 51°26.621 3°8.607 18.5938 4.5E-5 0.008346 -3.020363
2011-04-04 13:26:44 51°26.662 3°8.582 18.6066 4.5E-5 0.00834 -3.020363
2011-04-04 13:27:44 51°26.632 3°8.527 18.7278 4.5E-5 0.008336 -3.020363
2011-04-04 13:28:44 51°26.506 3°8.486 18.7188 4.5E-5 0.008336 -3.020363
2011-04-04 13:29:44 51°26.389 3°8.377 18.7148 4.5E-5 0.008334 -3.020363
2011-04-04 13:30:44 51°26.373 3°8.205 18.6941 4.5E-5 0.008325 -3.020363
2011-04-04 13:31:44 51°26.412 3°8.166 18.6483 4.5E-5 0.008309 -3.020363
2011-04-04 13:32:46 51°26.43 3°8.205 18.645 4.5E-5 0.008298 -3.020363
2011-04-04 13:33:47 51°26.45 3°8.247 18.6479 4.5E-5 0.00829 -3.020363
2011-04-04 13:34:44 51°26.47 3°8.286 18.6447 4.5E-5 0.008283 -3.020363
2011-04-04 13:35:44 51°26.492 3°8.327 18.6616 4.5E-5 0.008276 -3.020363
2011-04-04 13:36:44 51°26.514 3°8.366 18.6602 4.5E-5 0.00827 -3.020363
2011-04-04 13:37:44 51°26.535 3°8.407 18.6651 4.5E-5 0.008264 -3.020363
2011-04-04 13:38:44 51°26.555 3°8.448 18.6663 4.5E-5 0.008258 -3.020363
2011-04-04 13:39:44 51°26.575 3°8.49 18.6773 4.5E-5 0.008252 -3.020363
2011-04-04 13:40:44 51°26.596 3°8.533 18.6796 4.5E-5 0.008246 -3.020363
2011-04-04 13:41:44 51°26.617 3°8.576 18.6834 4.5E-5 0.008241 -3.020363
2011-04-04 13:42:44 51°26.639 3°8.618 18.6985 4.5E-5 0.008236 -3.020363
2011-04-04 13:43:44 51°26.661 3°8.661 18.7017 4.5E-5 0.008232 -3.020363
2011-04-04 13:44:44 51°26.682 3°8.703 18.6988 4.5E-5 0.008227 -3.020363
2011-04-04 13:45:44 51°26.705 3°8.746 18.704 4.5E-5 0.008222 -3.020363
2011-04-04 13:46:44 51°26.742 3°8.774 18.6799 4.5E-5 0.008218 -3.020363
2011-04-04 13:47:44 51°26.786 3°8.734 18.738 4.5E-5 0.008214 -3.020363
2011-04-04 13:48:44 51°26.813 3°8.705 18.7287 4.5E-5 0.008211 -3.020363
2011-04-04 13:49:44 51°26.838 3°8.7 18.7308 4.5E-5 0.008208 -3.020363
2011-04-04 13:50:44 51°26.864 3°8.713 18.7363 4.5E-5 0.008207 -3.020363
2011-04-04 13:51:44 51°26.89 3°8.743 18.7277 4.5E-5 0.008206 -3.020363
2011-04-04 13:52:44 51°26.914 3°8.782 18.7253 4.5E-5 0.008205 -3.020363
2011-04-04 13:53:44 51°26.937 3°8.825 18.7348 -999 -999 -3.020363
2011-04-04 13:54:44 51°26.958 3°8.867 18.7285 4.5E-5 0.008202 -3.020363
2011-04-04 13:55:44 51°26.977 3°8.909 18.7573 4.5E-5 0.008198 -3.020363
2011-04-04 13:56:44 51°26.997 3°8.949 18.7591 4.5E-5 0.008193 -3.020363
2011-04-04 13:57:44 51°27.019 3°8.99 18.7405 4.5E-5 0.008187 -3.020363
2011-04-04 13:58:44 51°27.042 3°9.026 18.7607 4.5E-5 0.008181 -3.020363
2011-04-04 13:59:44 51°27.065 3°9.064 18.7623 4.5E-5 0.008176 -3.020363
2011-04-04 14:00:44 51°27.087 3°9.102 18.754 4.5E-5 0.00817 -3.020363
2011-04-04 14:01:44 51°27.11 3°9.139 18.7713 4.5E-5 0.008165 -3.020363
2011-04-04 14:02:44 51°27.133 3°9.18 18.7615 4.5E-5 0.008159 -3.020363
2011-04-04 14:03:44 51°27.154 3°9.219 18.7609 4.5E-5 0.008153 -3.020363
2011-04-04 14:04:44 51°27.218 3°9.27 18.8888 4.5E-5 0.008152 -3.020363
2011-04-04 14:05:44 51°27.251 3°9.395 18.9014 4.5E-5 0.00815 -3.020363
2011-04-04 14:06:44 51°27.214 3°9.468 18.8713 4.5E-5 0.008147 -3.020363
2011-04-04 14:07:44 51°27.176 3°9.455 18.8299 4.5E-5 0.00814 -3.020363
2011-04-04 14:08:44 51°27.137 3°9.415 18.8663 4.5E-5 0.008135 -3.020363
2011-04-04 14:09:44 51°27.097 3°9.374 18.8557 -999 -999 -3.020363
2011-04-04 14:10:44 51°27.058 3°9.333 18.8678 4.5E-5 0.008123 -3.020363
2011-04-04 14:11:44 51°27.02 3°9.295 18.8487 4.5E-5 0.008117 -3.020363
2011-04-04 14:12:44 51°26.983 3°9.254 18.8435 4.5E-5 0.00811 -3.020363
2011-04-04 14:13:44 51°26.948 3°9.21 18.8391 4.5E-5 0.008102 -3.020363
2011-04-04 14:14:44 51°26.914 3°9.165 18.8577 4.5E-5 0.008095 -3.020363
2011-04-04 14:15:44 51°26.879 3°9.12 18.8509 4.5E-5 0.008088 -3.020363
2011-04-04 14:16:44 51°26.843 3°9.076 18.8586 4.5E-5 0.00808 -3.020363
2011-04-04 14:17:44 51°26.808 3°9.024 18.844 4.5E-5 0.008072 -3.020363
2011-04-04 14:18:44 51°26.775 3°8.967 18.8732 4.5E-5 0.008064 -3.020363
2011-04-04 14:19:44 51°26.741 3°8.909 18.8751 4.5E-5 0.008056 -3.020363
2011-04-04 14:20:44 51°26.707 3°8.852 18.8651 4.5E-5 0.008047 -3.020363
2011-04-04 14:21:44 51°26.673 3°8.796 18.8619 4.5E-5 0.008037 -3.020363
2011-04-04 14:22:44 51°26.637 3°8.742 18.8606 4.5E-5 0.008029 -3.020363
2011-04-04 14:23:44 51°26.604 3°8.683 18.8631 4.5E-5 0.008019 -3.020363
2011-04-04 14:24:44 51°26.571 3°8.625 18.8552 4.5E-5 0.00801 -3.020363
2011-04-04 14:25:44 51°26.546 3°8.561 18.8684 4.5E-5 0.008002 -3.020363
2011-04-04 14:26:44 51°26.56 3°8.476 18.8327 4.5E-5 0.00799 -3.020363
2011-04-04 14:27:44 51°26.599 3°8.393 18.8683 4.5E-5 0.007981 -3.020363
2011-04-04 14:28:44 51°26.677 3°8.363 18.8346 4.5E-5 0.007975 -3.020363
2011-04-04 14:29:44 51°26.761 3°8.424 18.8992 4.5E-5 0.007974 -3.020363
2011-04-04 14:30:44 51°26.804 3°8.529 18.891 4.5E-5 0.007973 -3.020363
2011-04-04 14:31:44 51°26.825 3°8.614 18.9326 4.5E-5 0.007972 -3.020363
2011-04-04 14:32:44 51°26.797 3°8.701 18.9517 4.5E-5 0.007978 -3.020363
2011-04-04 14:33:44 51°26.685 3°8.663 18.9413 4.5E-5 0.007975 -3.020363
2011-04-04 14:34:44 51°26.543 3°8.481 18.9266 4.5E-5 0.007973 -3.020363
2011-04-04 14:35:44 51°26.411 3°8.262 18.9203 4.5E-5 0.007967 -3.020363
2011-04-04 14:36:44 51°26.281 3°8.041 18.9175 4.5E-5 0.007958 -3.020363
2011-04-04 14:37:44 51°26.149 3°7.825 18.903 4.5E-5 0.007948 -3.020363
2011-04-04 14:38:44 51°26.018 3°7.613 18.9179 4.5E-5 0.007939 -3.020363
2011-04-04 14:39:44 51°25.887 3°7.399 18.9044 4.5E-5 0.007929 -3.020363
2011-04-04 14:40:44 51°25.754 3°7.191 18.9193 4.5E-5 0.007919 -3.020363
2011-04-04 14:41:44 51°25.62 3°6.981 18.9169 4.5E-5 0.00791 -3.020363
2011-04-04 14:42:44 51°25.483 3°6.778 18.914 4.5E-5 0.007895 -3.020363
2011-04-04 14:43:44 51°25.337 3°6.591 18.9052 4.5E-5 0.007881 -3.020363
2011-04-04 14:44:44 51°25.192 3°6.399 18.9161 4.5E-5 0.007869 -3.020363
2011-04-04 14:45:44 51°25.047 3°6.21 18.9088 4.5E-5 0.007856 -3.020363
2011-04-04 14:46:44 51°24.9 3°6.018 18.9001 4.5E-5 0.007842 -3.020363
2011-04-04 14:47:44 51°24.751 3°5.829 18.897 4.5E-5 0.007831 -3.020363
2011-04-04 14:48:44 51°24.603 3°5.633 18.9077 4.5E-5 0.007815 -3.020363
2011-04-04 14:49:44 51°24.453 3°5.44 18.9028 4.5E-5 0.007804 -3.020363
2011-04-04 14:50:44 51°24.301 3°5.244 18.9093 4.5E-5 0.007794 -3.020363
2011-04-04 14:51:44 51°24.144 3°5.05 18.9089 4.5E-5 0.007781 -3.020363
2011-04-04 14:52:44 51°23.989 3°4.859 18.9128 4.5E-5 0.007771 -3.020363
2011-04-04 14:53:44 51°23.841 3°4.667 18.9205 4.5E-5 0.007757 -3.020363
2011-04-04 14:54:44 51°23.693 3°4.48 18.9273 4.5E-5 0.007746 -3.020363
2011-04-04 14:55:44 51°23.546 3°4.289 18.9186 4.5E-5 0.007736 -3.020363
2011-04-04 14:56:44 51°23.397 3°4.1 18.9336 4.5E-5 0.007725 -3.020363
2011-04-04 14:57:44 51°23.249 3°3.906 18.939 4.5E-5 0.007713 -3.020363
2011-04-04 14:58:44 51°23.12 3°3.681 18.9255 4.5E-5 0.007702 -3.020363
2011-04-04 14:59:44 51°22.991 3°3.456 18.9254 4.5E-5 0.007691 -3.020363
2011-04-04 15:00:44 51°22.857 3°3.235 18.9303 4.5E-5 0.007682 -3.020363
2011-04-04 15:01:44 51°22.723 3°3.021 17.9555 4.5E-5 0.007674 -3.020363
2011-04-04 15:02:44 51°22.59 3°2.805 17.9383 4.5E-5 0.007649 -3.020363
2011-04-04 15:03:44 51°22.457 3°2.586 18.0037 4.5E-5 0.007631 -3.020363
2011-04-04 15:04:44 51°22.323 3°2.373 17.9708 4.5E-5 0.007618 -3.020363
2011-04-04 15:05:44 51°22.189 3°2.156 18.0357 4.5E-5 0.007608 -3.020363
2011-04-04 15:06:44 51°22.054 3°1.94 18.0155 4.5E-5 0.0076 -3.020363
2011-04-04 15:07:44 51°21.919 3°1.723 18.0655 4.5E-5 0.00759 -3.020363
2011-04-04 15:08:44 51°21.789 3°1.506 18.146 4.5E-5 0.007581 -3.020363
2011-04-04 15:09:44 51°21.665 3°1.274 18.1667 4.5E-5 0.007573 -3.020363
2011-04-04 15:10:44 51°21.543 3°1.038 18.1021 4.5E-5 0.007564 -3.020363
2011-04-04 15:11:44 51°21.422 3°0.803 18.245 4.5E-5 0.007557 -3.020363
2011-04-04 15:12:44 51°21.298 3°0.572 18.2077 4.5E-5 0.00755 -3.020363
2011-04-04 15:13:44 51°21.176 3°0.339 18.2425 4.5E-5 0.007542 -3.020363
2011-04-04 15:14:44 51°21.054 3°0.107 18.2379 -999 -999 -3.020363
2011-04-04 15:15:44 51°20.933 2°59.874 18.2208 4.5E-5 0.007521 -3.020363
2011-04-04 15:16:44 51°20.81 2°59.635 18.286 4.5E-5 0.007509 -3.020363
2011-04-04 15:17:44 51°20.688 2°59.397 18.2133 4.5E-5 0.007497 -3.020363
2011-04-04 15:18:44 51°20.563 2°59.161 18.2655 4.5E-5 0.007483 -3.020363
2011-04-04 15:19:44 51°20.442 2°58.924 18.2491 4.5E-5 0.007474 -3.020363
2011-04-04 15:20:44 51°20.318 2°58.683 18.2671 4.5E-5 0.00747 -3.020363
2011-04-04 15:21:44 51°20.195 2°58.442 18.3026 4.5E-5 0.007468 -3.020363
2011-04-04 15:22:44 51°20.071 2°58.203 18.3044 4.5E-5 0.007467 -3.020363
2011-04-04 15:23:44 51°19.946 2°57.963 18.3147 4.5E-5 0.007469 -3.020363
2011-04-04 15:24:44 51°19.822 2°57.722 18.3186 4.5E-5 0.007468 -3.020363
2011-04-04 15:25:44 51°19.696 2°57.483 18.3094 4.5E-5 0.00747 -3.020363
2011-04-04 15:26:44 51°19.574 2°57.244 18.3215 4.5E-5 0.00747 -3.020363
2011-04-04 15:27:44 51°19.451 2°57.01 18.3134 4.5E-5 0.007472 -3.020363
2011-04-04 15:28:44 51°19.329 2°56.772 18.3246 4.5E-5 0.007474 -3.020363
2011-04-04 15:29:44 51°19.206 2°56.53 18.3809 4.5E-5 0.007476 -3.020363
2011-04-04 15:30:44 51°19.084 2°56.289 18.3681 4.5E-5 0.007479 -3.020363
2011-04-04 15:31:44 51°18.95 2°56.067 18.3899 4.5E-5 0.007481 -3.020363
2011-04-04 15:32:44 51°18.811 2°55.85 18.3762 4.5E-5 0.007483 -3.020363
2011-04-04 15:33:44 51°18.673 2°55.631 18.3713 4.5E-5 0.007484 -3.020363
2011-04-04 15:34:44 51°18.534 2°55.411 18.3865 4.5E-5 0.007483 -3.020363
2011-04-04 15:35:44 51°18.393 2°55.191 18.3849 4.5E-5 0.007485 -3.020363
2011-04-04 15:36:44 51°18.254 2°54.967 18.4062 4.5E-5 0.007485 -3.020363
2011-04-04 15:37:44 51°18.114 2°54.745 18.4075 4.5E-5 0.007486 -3.020363
2011-04-04 15:38:44 51°17.972 2°54.529 18.4346 4.5E-5 0.007486 -3.020363
2011-04-04 15:39:44 51°17.821 2°54.331 18.4066 4.5E-5 0.007486 -3.020363
2011-04-04 15:40:44 51°17.668 2°54.134 18.4203 4.5E-5 0.007486 -3.020363
2011-04-04 15:41:44 51°17.518 2°53.938 18.4285 4.5E-5 0.007486 -3.020363
2011-04-04 15:42:44 51°17.359 2°53.756 18.444 4.5E-5 0.007487 -3.020363
2011-04-04 15:43:44 51°17.187 2°53.61 18.4464 -999 -999 -3.020363
2011-04-04 15:44:44 51°16.995 2°53.574 18.4771 -999 -999 -3.020363
2011-04-04 15:45:44 51°16.796 2°53.571 18.4123 4.5E-5 0.007488 -3.020363
2011-04-04 15:46:44 51°16.597 2°53.547 18.4459 4.5E-5 0.007488 -3.020363
2011-04-04 15:47:44 51°16.393 2°53.54 18.4381 4.5E-5 0.007488 -3.020363
2011-04-04 15:48:44 51°16.19 2°53.528 18.4333 4.5E-5 0.007488 -3.020363
2011-04-04 15:49:44 51°15.989 2°53.52 18.4701 4.5E-5 0.007488 -3.020363
2011-04-04 15:50:44 51°15.785 2°53.541 18.4206 4.5E-5 0.007489 -3.020363
2011-04-04 15:51:44 51°15.612 2°53.733 18.4656 4.5E-5 0.007489 -3.020363
2011-04-04 15:52:44 51°15.44 2°53.939 18.4369 4.5E-5 0.00749 -3.020363
2011-04-04 15:53:44 51°15.261 2°54.131 18.4362 4.5E-5 0.00749 -3.020363
2011-04-04 15:54:44 51°15.089 2°54.33 18.4222 4.5E-5 0.007491 -3.020363
2011-04-04 15:55:44 51°14.927 2°54.551 18.3899 4.5E-5 0.007492 -3.020363
2011-04-04 15:56:44 51°14.763 2°54.759 18.3856 4.5E-5 0.007495 -3.020363
2011-04-04 15:57:44 51°14.591 2°54.952 18.3883 4.5E-5 0.007496 -3.020363
2011-04-04 15:58:44 51°14.423 2°55.141 18.3618 4.5E-5 0.007497 -3.020363
2011-04-04 15:59:44 51°14.259 2°55.307 18.4034 4.5E-5 0.007501 -3.020363
2011-04-04 16:00:44 51°14.122 2°55.419 18.4153 4.5E-5 0.007502 -3.020363
2011-04-04 16:01:44 51°14.011 2°55.5 18.364 4.5E-5 0.007504 -3.020363
2011-04-04 16:02:44 51°13.909 2°55.573 18.354 4.5E-5 0.007508 -3.020363
2011-04-04 16:03:44 51°13.814 2°55.646 18.4321 4.5E-5 0.007508 -3.020363
2011-04-04 16:04:44 51°13.742 2°55.737 18.4431 4.5E-5 0.00751 -3.020363
2011-04-04 16:05:44 51°13.694 2°55.838 18.4465 4.5E-5 0.007512 -3.020363
2011-04-04 16:06:44 51°13.669 2°55.929 18.4702 4.5E-5 0.007513 -3.020363
2011-04-04 16:07:44 51°13.664 2°55.95 18.5031 4.5E-5 0.007514 -3.020363